Time;durP1;ratioP1;P1;durP2;ratioP2;P2;SDS_P1;SDS_P2;PMS_P1;PMS_P2;Temp;Humidity;BMP_temperature;BMP_pressure;BME280_temperature;BME280_humidity;BME280_pressure;Samples;Min_cycle;Max_cycle;Signal;HPM_P1;HPM_P2
2022/01/29 00:02:12;;;;;;;;;;;;;;;10.78;100.00;102734.47;4937443;29;19915;-61
2022/01/29 00:04:37;;;;;;;;;;;;;;;10.64;100.00;102735.81;4938855;29;19926;-61
2022/01/29 00:07:03;;;;;;;;;;;;;;;10.83;100.00;102732.16;4939692;29;20017;-60
2022/01/29 00:09:28;;;;;;;;;;;;;;;10.72;100.00;102734.06;4939618;29;20376;-60
2022/01/29 00:11:54;;;;;;;;;;;;;;;10.97;100.00;102725.47;4939465;29;20002;-61
2022/01/29 00:14:19;;;;;;;;;;;;;;;10.57;100.00;102724.84;4938350;29;20021;-61
2022/01/29 00:16:44;;;;;;;;;;;;;;;11.16;100.00;102724.50;4940172;29;20366;-59
2022/01/29 00:19:10;;;;;;;;;;;;;;;10.94;100.00;102715.91;4939797;29;19995;-61
2022/01/29 00:21:35;;;;;;;;;;;;;;;10.69;100.00;102712.13;4939659;29;19919;-60
2022/01/29 00:24:00;;;;;;;;;;;;;;;10.68;100.00;102711.28;4939337;29;20363;-61
2022/01/29 00:26:27;;;;;;;;;;;;;;;10.54;100.00;102709.09;4939313;29;19942;-60
2022/01/29 00:28:54;;;;;;;;;;;;;;;10.99;100.00;102700.22;4937913;29;19922;-59
2022/01/29 00:31:20;;;;;;;;;;;;;;;10.69;100.00;102696.06;4937951;29;20355;-60
2022/01/29 00:33:46;;;;;;;;;;;;;;;10.70;100.00;102698.59;4921976;29;19918;-60
2022/01/29 00:36:11;;;;;;;;;;;;;;;10.80;100.00;102692.34;4939424;29;19926;-60
2022/01/29 00:38:37;;;;;;;;;;;;;;;10.76;100.00;102687.28;4938811;29;20008;-59
2022/01/29 00:41:02;;;;;;;;;;;;;;;10.73;100.00;102682.25;4937766;29;20025;-59
2022/01/29 00:43:28;;;;;;;;;;;;;;;10.75;100.00;102680.25;4938892;29;20001;-59
2022/01/29 00:45:53;;;;;;;;;;;;;;;11.12;100.00;102666.88;4939358;29;20013;-60
2022/01/29 00:48:19;;;;;;;;;;;;;;;10.83;100.00;102662.59;4938962;29;19926;-59
2022/01/29 00:50:44;;;;;;;;;;;;;;;10.71;100.00;102657.47;4937580;29;20328;-61
2022/01/29 00:53:10;;;;;;;;;;;;;;;10.57;100.00;102660.66;4938447;29;19919;-60
2022/01/29 00:55:35;;;;;;;;;;;;;;;10.84;100.00;102645.53;4939203;29;19922;-60
2022/01/29 00:58:00;;;;;;;;;;;;;;;10.78;100.00;102640.78;4937608;29;19923;-61
2022/01/29 01:00:26;;;;;;;;;;;;;;;11.18;100.00;102640.31;4938491;29;19919;-59
2022/01/29 01:02:51;;;;;;;;;;;;;;;11.22;100.00;102635.50;4937246;29;19970;-59
2022/01/29 01:05:17;;;;;;;;;;;;;;;10.78;100.00;102628.28;4937083;29;19921;-59
2022/01/29 01:07:42;;;;;;;;;;;;;;;10.73;100.00;102617.19;4938102;29;19929;-59
2022/01/29 01:10:09;;;;;;;;;;;;;;;10.90;100.00;102619.00;4937962;29;19930;-61
2022/01/29 01:12:35;;;;;;;;;;;;;;;11.12;100.00;102610.66;4936678;29;19925;-61
2022/01/29 01:15:00;;;;;;;;;;;;;;;10.75;100.00;102599.97;4905451;29;20361;-61
2022/01/29 01:17:25;;;;;;;;;;;;;;;10.92;100.00;102600.13;4937890;29;19922;-59
2022/01/29 01:19:51;;;;;;;;;;;;;;;11.00;100.00;102602.03;4937481;29;19945;-60
2022/01/29 01:22:16;;;;;;;;;;;;;;;10.94;100.00;102602.63;4937968;29;19923;-60
2022/01/29 01:24:42;;;;;;;;;;;;;;;11.17;100.00;102581.56;4937949;29;19915;-60
2022/01/29 01:27:08;;;;;;;;;;;;;;;11.09;100.00;102563.59;4920897;29;19923;-60
2022/01/29 01:29:33;;;;;;;;;;;;;;;10.87;100.00;102578.34;4937779;29;19919;-60
2022/01/29 01:31:59;;;;;;;;;;;;;;;10.97;100.00;102581.75;4936390;29;20058;-60
2022/01/29 01:34:27;;;;;;;;;;;;;;;10.90;100.00;102586.88;4937952;29;19927;-60
2022/01/29 01:36:57;;;;;;;;;;;;;;;11.29;100.00;102579.47;4937702;29;19926;-59
2022/01/29 01:39:28;;;;;;;;;;;;;;;11.04;100.00;102565.91;4937933;29;19946;-60
2022/01/29 01:42:04;;;;;;;;;;;;;;;10.99;100.00;102568.22;4937949;29;19970;-59
2022/01/29 01:44:37;;;;;;;;;;;;;;;11.27;100.00;102571.56;4938633;29;19929;-60
2022/01/29 01:47:03;;;;;;;;;;;;;;;11.36;100.00;102574.31;4938680;29;19957;-59
2022/01/29 01:49:29;;;;;;;;;;;;;;;11.01;100.00;102599.19;4936411;29;19957;-61
2022/01/29 01:51:54;;;;;;;;;;;;;;;11.35;100.00;102572.66;4937401;29;20371;-65
2022/01/29 01:54:20;;;;;;;;;;;;;;;11.37;100.00;102560.75;4936132;29;19919;-61
2022/01/29 01:56:46;;;;;;;;;;;;;;;11.40;100.00;102568.47;4937316;29;19924;-60
2022/01/29 01:59:11;;;;;;;;;;;;;;;11.25;100.00;102573.56;4937735;29;19923;-60
2022/01/29 02:01:36;;;;;;;;;;;;;;;10.99;100.00;102558.34;4937366;29;20329;-59
2022/01/29 02:04:02;;;;;;;;;;;;;;;11.21;100.00;102560.69;4937731;29;20317;-59
2022/01/29 02:06:28;;;;;;;;;;;;;;;11.54;100.00;102560.84;4936380;29;20334;-60
2022/01/29 02:08:58;;;;;;;;;;;;;;;11.11;100.00;102558.09;4935918;29;19978;-60
2022/01/29 02:11:26;;;;;;;;;;;;;;;10.80;100.00;102555.84;4937572;29;19922;-59
2022/01/29 02:13:51;;;;;;;;;;;;;;;11.01;100.00;102550.16;4937591;29;19961;-59
2022/01/29 02:16:17;;;;;;;;;;;;;;;11.15;100.00;102548.75;4920408;29;19969;-60
2022/01/29 02:18:42;;;;;;;;;;;;;;;11.28;100.00;102548.34;4936915;29;19918;-60
2022/01/29 02:21:08;;;;;;;;;;;;;;;11.26;100.00;102548.47;4935842;29;19926;-60
2022/01/29 02:23:33;;;;;;;;;;;;;;;11.09;100.00;102541.34;4936811;29;19925;-61
2022/01/29 02:25:59;;;;;;;;;;;;;;;11.29;100.00;102532.09;4936718;29;20005;-59
2022/01/29 02:28:25;;;;;;;;;;;;;;;11.26;100.00;102534.25;4935651;29;19989;-59
2022/01/29 02:30:57;;;;;;;;;;;;;;;10.88;100.00;102529.16;4935350;29;19918;-60
2022/01/29 02:33:23;;;;;;;;;;;;;;;10.97;100.00;102522.03;4935912;29;20348;-61
2022/01/29 02:35:50;;;;;;;;;;;;;;;10.81;100.00;102522.72;4936655;29;19919;-60
2022/01/29 02:38:16;;;;;;;;;;;;;;;11.03;100.00;102511.50;4920742;29;20263;-61
2022/01/29 02:40:48;;;;;;;;;;;;;;;10.98;100.00;102505.78;4936658;29;20005;-61
2022/01/29 02:43:16;;;;;;;;;;;;;;;10.87;100.00;102511.41;4936744;29;19918;-61
2022/01/29 02:45:43;;;;;;;;;;;;;;;11.04;100.00;102507.84;4935264;29;19915;-61
2022/01/29 02:48:09;;;;;;;;;;;;;;;11.03;100.00;102503.47;4936572;29;19946;-61
2022/01/29 02:50:34;;;;;;;;;;;;;;;10.84;100.00;102498.31;4935431;29;20352;-61
2022/01/29 02:52:59;;;;;;;;;;;;;;;10.96;100.00;102498.94;4935106;29;20435;-61
2022/01/29 02:55:25;;;;;;;;;;;;;;;11.32;100.00;102491.63;4935352;29;19919;-61
2022/01/29 02:57:50;;;;;;;;;;;;;;;11.08;100.00;102489.63;4935030;29;19941;-60
2022/01/29 03:00:16;;;;;;;;;;;;;;;11.29;100.00;102475.00;4936564;29;19919;-60
2022/01/29 03:02:41;;;;;;;;;;;;;;;11.22;100.00;102474.81;4919639;29;19918;-60
2022/01/29 03:05:06;;;;;;;;;;;;;;;11.22;100.00;102472.13;4936354;29;20005;-60
2022/01/29 03:07:32;;;;;;;;;;;;;;;10.80;100.00;102470.19;4936179;29;20347;-60
2022/01/29 03:09:57;;;;;;;;;;;;;;;11.35;100.00;102452.13;4936255;29;19933;-60
2022/01/29 03:12:23;;;;;;;;;;;;;;;11.18;100.00;102460.06;4935128;29;19966;-60
2022/01/29 03:14:48;;;;;;;;;;;;;;;11.31;100.00;102460.47;4936249;29;20291;-60
2022/01/29 03:17:13;;;;;;;;;;;;;;;11.49;100.00;102459.53;4936600;29;20271;-60
2022/01/29 03:19:39;;;;;;;;;;;;;;;11.25;100.00;102461.09;4935244;29;20323;-61
2022/01/29 03:22:04;;;;;;;;;;;;;;;11.19;100.00;102451.03;4935646;29;20362;-61
2022/01/29 03:28:11;;;;;;;;;;;;;;;11.33;100.00;102442.41;4933649;29;19978;-61
2022/01/29 03:30:36;;;;;;;;;;;;;;;11.26;100.00;102441.34;4935875;29;19922;-62
2022/01/29 03:33:02;;;;;;;;;;;;;;;11.23;100.00;102441.66;4935596;29;20429;-62
2022/01/29 03:35:27;;;;;;;;;;;;;;;11.39;100.00;102437.41;4936004;29;20339;-61
2022/01/29 03:37:53;;;;;;;;;;;;;;;11.32;100.00;102445.22;4940023;29;20363;-61
2022/01/29 03:40:18;;;;;;;;;;;;;;;11.40;100.00;102441.75;4922790;29;19927;-61
2022/01/29 03:42:59;;;;;;;;;;;;;;;11.36;100.00;102437.72;4938465;29;19918;-61
2022/01/29 03:45:25;;;;;;;;;;;;;;;11.57;100.00;102430.09;4939713;29;19923;-61
2022/01/29 03:47:50;;;;;;;;;;;;;;;11.38;100.00;102441.06;4922649;29;19914;-61
2022/01/29 03:50:16;;;;;;;;;;;;;;;11.48;100.00;102452.47;4938463;29;19946;-61
2022/01/29 03:52:41;;;;;;;;;;;;;;;11.64;100.00;102438.28;4939699;29;19914;-61
2022/01/29 03:55:07;;;;;;;;;;;;;;;11.45;100.00;102439.41;4938342;29;20394;-61
2022/01/29 03:57:32;;;;;;;;;;;;;;;11.71;100.00;102431.31;4939505;29;20031;-61
2022/01/29 03:59:58;;;;;;;;;;;;;;;11.38;100.00;102433.84;4939709;29;19927;-61
2022/01/29 04:02:23;;;;;;;;;;;;;;;11.38;100.00;102435.72;4939462;29;20030;-61
2022/01/29 04:04:48;;;;;;;;;;;;;;;11.47;100.00;102421.34;4939328;29;19922;-60
2022/01/29 04:07:14;;;;;;;;;;;;;;;11.48;100.00;102423.00;4939376;29;20003;-61
2022/01/29 04:09:46;;;;;;;;;;;;;;;11.73;100.00;102418.56;4939717;29;20025;-61
2022/01/29 04:12:13;;;;;;;;;;;;;;;11.29;100.00;102435.66;4939572;29;19918;-61
2022/01/29 04:14:39;;;;;;;;;;;;;;;11.65;100.00;102417.72;4939203;29;19925;-61
2022/01/29 04:17:04;;;;;;;;;;;;;;;11.52;100.00;102413.66;4939140;29;19922;-61
2022/01/29 04:19:30;;;;;;;;;;;;;;;11.91;100.00;102414.94;4938508;29;19915;-62
2022/01/29 04:21:55;;;;;;;;;;;;;;;12.22;100.00;102413.44;4939634;29;20372;-61
2022/01/29 04:24:21;;;;;;;;;;;;;;;11.70;100.00;102420.72;4939194;29;19926;-61
2022/01/29 04:26:46;;;;;;;;;;;;;;;11.54;100.00;102406.31;4937699;29;19961;-61
2022/01/29 04:29:12;;;;;;;;;;;;;;;11.31;100.00;102425.66;4937983;29;20269;-61
2022/01/29 04:31:47;;;;;;;;;;;;;;;11.52;100.00;102394.91;4938149;29;19961;-60
2022/01/29 04:34:13;;;;;;;;;;;;;;;11.44;100.00;102401.09;4939312;29;19962;-63
2022/01/29 04:36:38;;;;;;;;;;;;;;;11.73;100.00;102396.28;4937777;29;19962;-61
2022/01/29 04:39:04;;;;;;;;;;;;;;;11.70;100.00;102385.91;4937715;29;19966;-61
2022/01/29 04:41:29;;;;;;;;;;;;;;;11.60;100.00;102389.56;4937760;29;19919;-60
2022/01/29 04:43:54;;;;;;;;;;;;;;;11.64;100.00;102394.59;4939327;29;19966;-60
2022/01/29 04:46:20;;;;;;;;;;;;;;;11.84;100.00;102381.72;4938391;29;19925;-61
2022/01/29 04:48:45;;;;;;;;;;;;;;;12.04;100.00;102383.13;4938665;29;19977;-61
2022/01/29 04:51:11;;;;;;;;;;;;;;;11.90;100.00;102371.19;4937557;29;20009;-61
2022/01/29 04:53:36;;;;;;;;;;;;;;;11.59;100.00;102358.44;4938373;29;19929;-61
2022/01/29 04:56:02;;;;;;;;;;;;;;;11.63;100.00;102364.28;4921639;29;20282;-61
2022/01/29 04:58:27;;;;;;;;;;;;;;;11.67;100.00;102362.09;4937070;29;19923;-61
2022/01/29 05:00:53;;;;;;;;;;;;;;;11.80;100.00;102361.63;4937384;29;19918;-61
2022/01/29 05:03:18;;;;;;;;;;;;;;;11.84;100.00;102363.81;4938277;29;19949;-61
2022/01/29 05:05:44;;;;;;;;;;;;;;;11.58;100.00;102380.00;4937041;29;19942;-61
2022/01/29 05:08:12;;;;;;;;;;;;;;;11.99;100.00;102361.28;4937081;29;20371;-61
2022/01/29 05:10:37;;;;;;;;;;;;;;;12.04;100.00;102358.16;4938141;29;19950;-62
2022/01/29 05:13:09;;;;;;;;;;;;;;;12.26;100.00;102355.81;4937173;29;19972;-60
2022/01/29 05:29:04;;;;;;;;;;;;;;;12.11;100.00;102359.16;4937593;29;19919;-61
2022/01/29 05:31:29;;;;;;;;;;;;;;;12.28;100.00;102356.47;4936401;29;19941;-61
2022/01/29 05:33:55;;;;;;;;;;;;;;;12.14;100.00;102358.00;4936633;29;20368;-60
2022/01/29 05:36:20;;;;;;;;;;;;;;;11.93;100.00;102356.63;4938162;29;19919;-60
2022/01/29 05:38:46;;;;;;;;;;;;;;;12.05;100.00;102352.59;4937551;29;20386;-60
2022/01/29 05:41:11;;;;;;;;;;;;;;;12.02;100.00;102360.16;4920879;29;19919;-60
2022/01/29 05:43:36;;;;;;;;;;;;;;;12.45;100.00;102355.41;4936687;29;19930;-60
2022/01/29 05:46:02;;;;;;;;;;;;;;;12.25;100.00;102359.50;4936479;29;19915;-61
2022/01/29 05:48:28;;;;;;;;;;;;;;;12.50;100.00;102349.53;4936369;29;19926;-61
2022/01/29 05:50:53;;;;;;;;;;;;;;;12.15;100.00;102346.25;4936227;29;19914;-61
2022/01/29 05:53:19;;;;;;;;;;;;;;;12.26;100.00;102350.44;4920258;29;19919;-61
2022/01/29 05:55:44;;;;;;;;;;;;;;;12.13;100.00;102343.72;4937365;29;20062;-61
2022/01/29 05:58:09;;;;;;;;;;;;;;;11.93;100.00;102337.84;4936232;29;19923;-61
2022/01/29 06:00:35;;;;;;;;;;;;;;;12.28;100.00;102335.81;4937185;29;20323;-61
2022/01/29 06:03:06;;;;;;;;;;;;;;;12.26;100.00;102323.63;4936522;29;19929;-61
2022/01/29 06:05:32;;;;;;;;;;;;;;;12.23;100.00;102324.78;4937181;29;19942;-61
2022/01/29 06:07:57;;;;;;;;;;;;;;;12.44;100.00;102331.44;4936989;29;20336;-61
2022/01/29 06:10:23;;;;;;;;;;;;;;;12.36;100.00;102328.78;4937073;29;19926;-61
2022/01/29 06:13:10;;;;;;;;;;;;;;;12.39;100.00;102315.03;4936298;29;20343;-61
2022/01/29 06:15:41;;;;;;;;;;;;;;;12.26;100.00;102312.88;4937446;29;19918;-61
2022/01/29 06:18:11;;;;;;;;;;;;;;;12.29;100.00;102304.50;4937974;29;19918;-62
2022/01/29 06:20:37;;;;;;;;;;;;;;;12.36;100.00;102310.00;4937236;29;19914;-61
2022/01/29 06:23:03;;;;;;;;;;;;;;;12.64;100.00;102310.41;4936731;29;19997;-61
2022/01/29 06:25:29;;;;;;;;;;;;;;;12.39;100.00;102305.13;4937916;29;19922;-60
2022/01/29 06:27:55;;;;;;;;;;;;;;;12.19;100.00;102315.41;4937524;29;19919;-60
2022/01/29 06:30:20;;;;;;;;;;;;;;;12.18;100.00;102303.81;4936561;29;20377;-60
2022/01/29 06:32:45;;;;;;;;;;;;;;;12.51;100.00;102299.41;4937472;29;19926;-61
2022/01/29 06:35:11;;;;;;;;;;;;;;;12.51;100.00;102304.78;4935977;29;19957;-60
2022/01/29 06:37:37;;;;;;;;;;;;;;;12.52;100.00;102295.72;4936606;29;19958;-61
2022/01/29 06:40:02;;;;;;;;;;;;;;;12.82;100.00;102275.31;4936287;29;19960;-61
2022/01/29 06:42:28;;;;;;;;;;;;;;;12.33;100.00;102273.63;4937071;29;20376;-61
2022/01/29 06:44:53;;;;;;;;;;;;;;;12.42;100.00;102287.84;4935782;29;20371;-61
2022/01/29 06:47:18;;;;;;;;;;;;;;;12.37;100.00;102290.22;4920002;29;20327;-61
2022/01/29 06:49:44;;;;;;;;;;;;;;;12.53;100.00;102287.47;4936395;29;19925;-61
2022/01/29 06:52:09;;;;;;;;;;;;;;;12.72;100.00;102291.63;4936304;29;19995;-61
2022/01/29 06:54:34;;;;;;;;;;;;;;;12.35;100.00;102284.19;4936427;29;19915;-61
2022/01/29 06:57:00;;;;;;;;;;;;;;;12.28;100.00;102292.91;4936366;29;19996;-61
2022/01/29 06:59:25;;;;;;;;;;;;;;;12.39;100.00;102298.94;4936380;29;20363;-61
2022/01/29 07:01:51;;;;;;;;;;;;;;;12.79;100.00;102269.44;4919269;29;20397;-61
2022/01/29 07:04:16;;;;;;;;;;;;;;;12.43;100.00;102282.31;4936335;29;19922;-61
2022/01/29 07:06:42;;;;;;;;;;;;;;;12.47;100.00;102282.81;4937032;29;19926;-61
2022/01/29 07:09:08;;;;;;;;;;;;;;;12.55;100.00;102280.09;4936181;29;20391;-61
2022/01/29 07:11:33;;;;;;;;;;;;;;;12.79;100.00;102291.72;4925601;29;19918;-61
2022/01/29 07:14:03;;;;;;;;;;;;;;;12.72;100.00;102290.75;4941481;29;20282;-61
2022/01/29 07:16:32;;;;;;;;;;;;;;;12.32;100.00;102283.50;4942946;29;19966;-61
2022/01/29 07:18:58;;;;;;;;;;;;;;;12.61;100.00;102297.34;4943134;29;19978;-62
2022/01/29 07:21:23;;;;;;;;;;;;;;;12.42;100.00;102286.00;4942752;29;19918;-60
2022/01/29 07:23:49;;;;;;;;;;;;;;;12.47;100.00;102277.44;4942513;29;19919;-61
2022/01/29 07:26:14;;;;;;;;;;;;;;;12.45;100.00;102285.66;4941579;29;19926;-61
2022/01/29 07:28:39;;;;;;;;;;;;;;;12.57;100.00;102287.97;4941115;29;20272;-63
2022/01/29 07:31:05;;;;;;;;;;;;;;;12.55;100.00;102279.25;4941185;29;19958;-61
2022/01/29 07:33:31;;;;;;;;;;;;;;;12.58;100.00;102278.91;4942681;29;19923;-61
2022/01/29 07:35:56;;;;;;;;;;;;;;;12.93;100.00;102276.75;4942915;29;20011;-60
2022/01/29 07:38:22;;;;;;;;;;;;;;;12.47;100.00;102272.06;4942975;29;20367;-61
2022/01/29 07:40:47;;;;;;;;;;;;;;;12.40;100.00;102289.88;4942361;29;20061;-61
2022/01/29 07:43:13;;;;;;;;;;;;;;;12.65;100.00;102282.56;4941192;29;20057;-61
2022/01/29 07:45:38;;;;;;;;;;;;;;;12.31;100.00;102273.78;4942321;29;19926;-60
2022/01/29 07:48:04;;;;;;;;;;;;;;;12.66;100.00;102251.22;4940594;29;19922;-61
2022/01/29 07:50:29;;;;;;;;;;;;;;;12.71;100.00;102247.00;4941937;29;20022;-61
2022/01/29 07:52:57;;;;;;;;;;;;;;;12.80;100.00;102241.56;4942530;29;19921;-60
2022/01/29 07:55:23;;;;;;;;;;;;;;;12.90;100.00;102236.81;4942225;29;20294;-61
2022/01/29 07:57:49;;;;;;;;;;;;;;;12.60;100.00;102244.69;4941047;29;20025;-62
2022/01/29 08:00:15;;;;;;;;;;;;;;;12.59;100.00;102237.66;4942287;29;19943;-61
2022/01/29 08:02:40;;;;;;;;;;;;;;;13.15;100.00;102239.38;4942685;29;19915;-61
2022/01/29 08:05:06;;;;;;;;;;;;;;;12.89;100.00;102238.66;4940854;29;19923;-61
2022/01/29 08:07:31;;;;;;;;;;;;;;;12.94;100.00;102230.09;4941163;29;20283;-61
2022/01/29 08:09:57;;;;;;;;;;;;;;;12.64;100.00;102232.59;4942072;29;19927;-61
2022/01/29 08:12:22;;;;;;;;;;;;;;;12.66;100.00;102227.88;4925161;29;20039;-61
2022/01/29 08:14:47;;;;;;;;;;;;;;;12.83;100.00;102222.44;4942004;29;19931;-61
2022/01/29 08:17:13;;;;;;;;;;;;;;;12.88;100.00;102241.53;4942089;29;19919;-61
2022/01/29 08:19:38;;;;;;;;;;;;;;;12.95;100.00;102226.41;4941232;29;19978;-61
2022/01/29 08:22:03;;;;;;;;;;;;;;;13.04;100.00;102235.25;4939019;29;19926;-60
2022/01/29 08:24:30;;;;;;;;;;;;;;;13.03;100.00;102220.13;4939005;29;19978;-62
2022/01/29 08:26:55;;;;;;;;;;;;;;;12.95;100.00;102215.66;4939647;29;19958;-61
2022/01/29 08:29:21;;;;;;;;;;;;;;;13.08;100.00;102235.69;4921714;29;19975;-61
2022/01/29 08:31:46;;;;;;;;;;;;;;;13.33;100.00;102213.00;4937345;29;19970;-62
2022/01/29 08:34:11;;;;;;;;;;;;;;;13.31;100.00;102208.84;4938304;29;19929;-61
2022/01/29 08:36:37;;;;;;;;;;;;;;;13.21;100.00;102206.41;4939111;29;20403;-61
2022/01/29 08:39:02;;;;;;;;;;;;;;;13.13;100.00;102203.78;4937732;29;19919;-61
2022/01/29 08:41:28;;;;;;;;;;;;;;;12.96;100.00;102211.97;4938735;29;19923;-62
2022/01/29 08:43:53;;;;;;;;;;;;;;;13.11;100.00;102208.47;4938060;29;19929;-60
2022/01/29 08:46:19;;;;;;;;;;;;;;;13.08;100.00;102201.63;4922301;29;20270;-61
2022/01/29 08:48:44;;;;;;;;;;;;;;;13.17;100.00;102205.94;4938915;29;20385;-61
2022/01/29 08:51:10;;;;;;;;;;;;;;;13.36;100.00;102193.03;4939281;29;19973;-60
2022/01/29 08:53:35;;;;;;;;;;;;;;;13.19;100.00;102201.22;4938724;29;19923;-60
2022/01/29 08:56:01;;;;;;;;;;;;;;;13.09;100.00;102200.63;4939111;29;20379;-61
2022/01/29 08:58:27;;;;;;;;;;;;;;;13.07;100.00;102191.91;4938518;29;19919;-61
2022/01/29 09:00:52;;;;;;;;;;;;;;;13.22;100.00;102200.03;4938930;29;20442;-61
2022/01/29 09:03:18;;;;;;;;;;;;;;;13.17;100.00;102195.19;4938044;29;19930;-61
2022/01/29 09:05:44;;;;;;;;;;;;;;;13.23;100.00;102193.63;4938163;29;20009;-61
2022/01/29 09:08:10;;;;;;;;;;;;;;;13.16;100.00;102176.56;4936982;29;19923;-61
2022/01/29 09:10:35;;;;;;;;;;;;;;;13.28;100.00;102188.56;4938269;29;20394;-62
2022/01/29 09:13:01;;;;;;;;;;;;;;;13.08;100.00;102198.94;4938192;29;20268;-60
2022/01/29 09:15:27;;;;;;;;;;;;;;;13.40;100.00;102177.38;4938200;29;19925;-60
2022/01/29 09:17:52;;;;;;;;;;;;;;;13.61;100.00;102174.03;4937488;29;20323;-62
2022/01/29 09:20:18;;;;;;;;;;;;;;;13.54;100.00;102171.22;4937502;29;19922;-62
2022/01/29 09:22:43;;;;;;;;;;;;;;;13.59;100.00;102189.50;4938006;29;19970;-61
2022/01/29 09:25:09;;;;;;;;;;;;;;;13.62;100.00;102168.47;4937980;29;19965;-60
2022/01/29 09:27:34;;;;;;;;;;;;;;;13.30;100.00;102189.19;4937600;29;19918;-63
2022/01/29 09:29:59;;;;;;;;;;;;;;;13.66;100.00;102181.53;4936628;29;20013;-61
2022/01/29 09:32:25;;;;;;;;;;;;;;;13.46;100.00;102179.38;4938125;29;19919;-60
2022/01/29 09:34:50;;;;;;;;;;;;;;;13.55;100.00;102178.25;4936723;29;19922;-60
2022/01/29 09:37:16;;;;;;;;;;;;;;;13.90;100.00;102175.06;4937353;29;19922;-59
2022/01/29 09:39:45;;;;;;;;;;;;;;;13.69;100.00;102160.50;4937190;29;19992;-61
2022/01/29 09:42:10;;;;;;;;;;;;;;;13.46;100.00;102179.38;4936602;29;20430;-60
2022/01/29 09:44:36;;;;;;;;;;;;;;;13.85;100.00;102172.94;4937260;29;19919;-61
2022/01/29 09:47:02;;;;;;;;;;;;;;;13.38;100.00;102157.91;4936297;29;19965;-60
2022/01/29 09:49:29;;;;;;;;;;;;;;;13.52;100.00;102180.50;4937742;29;19915;-61
2022/01/29 09:51:55;;;;;;;;;;;;;;;13.78;100.00;102172.00;4936315;29;19919;-60
2022/01/29 09:54:20;;;;;;;;;;;;;;;13.55;100.00;102172.88;4937375;29;19940;-60
2022/01/29 09:56:46;;;;;;;;;;;;;;;13.68;100.00;102169.56;4936100;29;19946;-60
2022/01/29 09:59:11;;;;;;;;;;;;;;;13.56;100.00;102184.50;4936116;29;19919;-60
2022/01/29 10:01:36;;;;;;;;;;;;;;;13.56;100.00;102193.38;4937522;29;19923;-59
2022/01/29 10:04:03;;;;;;;;;;;;;;;14.08;100.00;102174.72;4937055;29;19918;-62
2022/01/29 10:06:29;;;;;;;;;;;;;;;13.58;100.00;102166.31;4936945;29;19938;-60
2022/01/29 10:08:54;;;;;;;;;;;;;;;13.60;100.00;102180.41;4937695;29;19914;-60
2022/01/29 10:11:21;;;;;;;;;;;;;;;13.62;100.00;102160.41;4937040;29;20434;-60
2022/01/29 10:13:46;;;;;;;;;;;;;;;13.55;100.00;102147.88;4936799;29;19937;-60
2022/01/29 10:16:19;;;;;;;;;;;;;;;13.78;100.00;102177.38;4937213;29;20295;-60
2022/01/29 10:19:02;;;;;;;;;;;;;;;14.07;100.00;102138.06;4936935;29;19919;-59
2022/01/29 10:21:29;;;;;;;;;;;;;;;13.99;100.00;102154.28;4936854;29;19978;-60
2022/01/29 10:24:14;;;;;;;;;;;;;;;14.34;100.00;102144.59;4935882;29;19914;-59
2022/01/29 10:26:41;;;;;;;;;;;;;;;13.74;100.00;102127.69;4936169;29;19919;-60
2022/01/29 10:29:08;;;;;;;;;;;;;;;13.95;100.00;102136.88;4936970;29;20471;-60
2022/01/29 10:31:43;;;;;;;;;;;;;;;13.98;100.00;102128.41;4935336;29;19957;-60
2022/01/29 10:34:26;;;;;;;;;;;;;;;14.32;100.00;102124.31;4936531;29;19923;-61
2022/01/29 10:37:10;;;;;;;;;;;;;;;14.15;100.00;102119.13;4935716;29;19973;-61
2022/01/29 10:39:35;;;;;;;;;;;;;;;14.37;100.00;102124.56;4936719;29;19918;-59
2022/01/29 10:42:22;;;;;;;;;;;;;;;14.65;100.00;102113.06;4936072;29;19918;-61
2022/01/29 10:44:49;;;;;;;;;;;;;;;14.45;100.00;102113.69;4920065;29;20327;-60
2022/01/29 10:47:14;;;;;;;;;;;;;;;14.27;100.00;102121.31;4936610;29;19918;-60
2022/01/29 10:49:48;;;;;;;;;;;;;;;14.70;100.00;102113.31;4934987;29;19914;-60
2022/01/29 10:52:14;;;;;;;;;;;;;;;14.87;100.00;102119.31;4936661;29;19914;-61
2022/01/29 10:54:40;;;;;;;;;;;;;;;14.83;100.00;102109.13;4935443;29;19954;-61
2022/01/29 10:57:07;;;;;;;;;;;;;;;14.59;100.00;102097.69;4936691;29;19923;-60
2022/01/29 10:59:34;;;;;;;;;;;;;;;14.66;100.00;102117.41;4936370;29;19911;-60
2022/01/29 11:02:07;;;;;;;;;;;;;;;14.60;100.00;102100.16;4936354;29;19915;-60
2022/01/29 11:04:34;;;;;;;;;;;;;;;14.34;100.00;102087.28;4935969;29;20393;-60
2022/01/29 11:07:01;;;;;;;;;;;;;;;14.52;100.00;102097.59;4935143;29;19911;-60
2022/01/29 11:09:28;;;;;;;;;;;;;;;14.37;100.00;102086.03;4936196;29;19914;-62
2022/01/29 11:11:54;;;;;;;;;;;;;;;14.41;100.00;102098.94;4936350;29;19921;-60
2022/01/29 11:14:20;;;;;;;;;;;;;;;14.77;100.00;102113.41;4936892;29;19968;-60
2022/01/29 11:16:46;;;;;;;;;;;;;;;14.66;100.00;102082.41;4936475;29;19917;-60
2022/01/29 11:19:12;;;;;;;;;;;;;;;14.32;100.00;102103.59;4936043;29;19958;-59
2022/01/29 11:21:40;;;;;;;;;;;;;;;14.56;100.00;102071.97;4936310;29;19917;-59
2022/01/29 11:24:06;;;;;;;;;;;;;;;14.55;100.00;102078.38;4936419;29;20002;-59
2022/01/29 11:26:32;;;;;;;;;;;;;;;14.89;100.00;102070.63;4936765;29;19966;-59
2022/01/29 11:29:16;;;;;;;;;;;;;;;14.65;100.00;102064.59;4936085;29;19966;-59
2022/01/29 11:31:41;;;;;;;;;;;;;;;14.64;100.00;102052.16;4936067;29;20247;-59
2022/01/29 11:34:08;;;;;;;;;;;;;;;14.60;100.00;102050.88;4935868;29;19937;-59
2022/01/29 11:36:48;;;;;;;;;;;;;;;14.60;100.00;102043.63;4936354;29;19958;-61
2022/01/29 11:39:24;;;;;;;;;;;;;;;14.56;100.00;102028.09;4936004;29;19950;-60
2022/01/29 11:42:08;;;;;;;;;;;;;;;14.86;100.00;102036.03;4934951;29;19915;-59
2022/01/29 11:44:34;;;;;;;;;;;;;;;14.53;100.00;102033.81;4934897;29;19986;-60
2022/01/29 11:47:18;;;;;;;;;;;;;;;14.78;100.00;102042.38;4936380;29;19965;-59
2022/01/29 11:49:43;;;;;;;;;;;;;;;14.60;100.00;102038.25;4936447;29;19914;-59
2022/01/29 11:52:20;;;;;;;;;;;;;;;14.40;100.00;102047.97;4936354;29;20303;-59
2022/01/29 11:54:59;;;;;;;;;;;;;;;14.80;100.00;102026.03;4935320;29;20370;-59
2022/01/29 11:57:24;;;;;;;;;;;;;;;14.57;100.00;102035.13;4937378;29;19973;-61
2022/01/29 11:59:50;;;;;;;;;;;;;;;14.86;100.00;102022.56;4939553;29;19946;-60
2022/01/29 12:02:15;;;;;;;;;;;;;;;14.92;100.00;102027.16;4939461;29;19918;-60
2022/01/29 12:04:58;;;;;;;;;;;;;;;14.90;100.00;102011.22;4939252;29;19911;-60
2022/01/29 12:07:29;;;;;;;;;;;;;;;14.54;100.00;102030.13;4939564;29;19919;-59
2022/01/29 12:10:14;;;;;;;38.13;9.35;;;;;;;14.96;100.00;102014.13;5061729;27;1486650;-60
2022/01/29 12:12:42;;;;;;;13.07;3.93;;;;;;;15.16;100.00;102008.88;5089714;28;20070;-60
2022/01/29 12:15:10;;;;;;;23.43;6.30;;;;;;;15.16;100.00;102014.25;5089979;28;20269;-60
2022/01/29 12:17:49;;;;;;;20.53;5.73;;;;;;;15.05;100.00;102003.03;5089110;28;20279;-60
2022/01/29 12:20:20;;;;;;;18.43;6.30;;;;;;;15.15;100.00;102010.75;5089002;28;20284;-61
2022/01/29 12:22:48;;;;;;;19.00;6.03;;;;;;;15.48;100.00;101998.50;5088569;28;20284;-60
2022/01/29 12:25:17;;;;;;;16.10;4.80;;;;;;;15.43;100.00;102001.78;5088261;28;20272;-60
2022/01/29 12:27:48;;;;;;;21.27;6.10;;;;;;;15.40;100.00;101974.38;5089520;28;20280;-60
2022/01/29 12:30:19;;;;;;;15.00;5.90;;;;;;;16.01;100.00;101988.97;5089518;28;20268;-60
2022/01/29 12:32:56;;;;;;;14.70;4.83;;;;;;;15.37;100.00;101958.63;5088917;28;20304;-60
2022/01/29 12:35:34;;;;;;;19.50;5.85;;;;;;;14.94;100.00;101979.31;5088909;28;20331;-59
2022/01/29 12:38:00;;;;;;;7.70;3.30;;;;;;;15.10;100.00;101956.59;5089678;28;20036;-60
2022/01/29 12:40:26;;;;;;;17.67;4.03;;;;;;;15.58;100.00;101955.00;5087962;28;20265;-60